Time;durP1;ratioP1;P1;durP2;ratioP2;P2;SDS_P1;SDS_P2;PMS_P1;PMS_P2;Temp;Humidity;BMP_temperature;BMP_pressure;BME280_temperature;BME280_humidity;BME280_pressure;Samples;Min_cycle;Max_cycle;Signal;HPM_P1;HPM_P2
2022/04/06 00:00:21;;;;;;;26.10;9.47;;;8.00;84.90;;;;;;5036831;28;20044;-72
2022/04/06 00:02:47;;;;;;;22.08;8.63;;;8.00;84.90;;;;;;5053346;28;20063;-72
2022/04/06 00:05:13;;;;;;;32.10;9.80;;;8.00;85.00;;;;;;5035631;28;20082;-73
2022/04/06 00:07:41;;;;;;;24.65;8.00;;;8.00;84.80;;;;;;5056647;28;20052;-72
2022/04/06 00:10:09;;;;;;;22.83;8.07;;;8.00;84.80;;;;;;5055845;28;20405;-72
2022/04/06 00:12:35;;;;;;;22.90;8.48;;;8.00;84.70;;;;;;5027575;28;20040;-72
2022/04/06 00:15:02;;;;;;;32.63;9.57;;;8.00;84.60;;;;;;5037533;28;20068;-72
2022/04/06 00:17:28;;;;;;;29.85;9.32;;;8.00;84.60;;;;;;5027736;28;20032;-72
2022/04/06 00:19:54;;;;;;;23.60;7.90;;;8.00;84.50;;;;;;5029146;28;20036;-72
2022/04/06 00:22:19;;;;;;;25.73;8.17;;;8.00;84.30;;;;;;5052159;28;20041;-72
2022/04/06 00:24:45;;;;;;;24.40;7.83;;;8.00;84.20;;;;;;5038283;28;20148;-72
2022/04/06 00:27:11;;;;;;;25.17;8.00;;;8.10;84.10;;;;;;5054609;28;20040;-72
2022/04/06 00:29:37;;;;;;;24.30;7.80;;;8.10;83.90;;;;;;5054522;28;20038;-72
2022/04/06 00:32:03;;;;;;;24.20;7.47;;;8.10;83.80;;;;;;5034335;28;20097;-71
2022/04/06 00:37:20;;;;;;;21.15;6.63;;;8.20;83.50;;;;;;5025184;28;20384;-72
2022/04/06 00:39:46;;;;;;;17.47;6.10;;;8.20;83.30;;;;;;5051784;28;20033;-72
2022/04/06 00:42:12;;;;;;;19.33;6.07;;;8.20;83.10;;;;;;5051082;28;20428;-72
2022/04/06 00:44:38;;;;;;;15.93;5.73;;;8.20;83.00;;;;;;5054641;28;20440;-72
2022/04/06 00:47:05;;;;;;;21.27;5.20;;;8.20;83.00;;;;;;5036618;28;20508;-72
2022/04/06 00:49:32;;;;;;;17.73;6.18;;;8.20;82.90;;;;;;5042056;28;20041;-71
2022/04/06 00:52:00;;;;;;;16.25;5.13;;;8.20;83.00;;;;;;5037484;28;20169;-71
2022/04/06 00:54:29;;;;;;;18.98;4.75;;;8.20;82.60;;;;;;5038112;28;20200;-71
2022/04/06 00:56:54;;;;;;;16.85;5.35;;;8.30;82.70;;;;;;5070978;28;20046;-72
2022/04/06 00:59:20;;;;;;;18.30;4.90;;;8.30;82.60;;;;;;5039345;28;20032;-72
2022/04/06 01:01:48;;;;;;;15.02;5.22;;;8.30;82.60;;;;;;5057321;28;20040;-72
2022/04/06 01:04:15;;;;;;;25.58;5.63;;;8.30;82.70;;;;;;5045025;28;20137;-72
2022/04/06 01:06:42;;;;;;;14.00;4.05;;;8.30;82.50;;;;;;5053685;28;21417;-72
2022/04/06 01:09:08;;;;;;;18.88;4.13;;;8.30;82.20;;;;;;5057511;28;20079;-72
2022/04/06 01:11:34;;;;;;;17.13;5.38;;;8.30;82.30;;;;;;5016669;28;20051;-72
2022/04/06 01:14:02;;;;;;;21.47;4.63;;;8.30;82.00;;;;;;5052069;28;20040;-71
2022/04/06 01:16:28;;;;;;;10.23;3.50;;;8.30;81.90;;;;;;5059204;28;20044;-71
2022/04/06 01:18:53;;;;;;;11.50;4.05;;;8.30;81.90;;;;;;5037323;28;20048;-71
2022/04/06 01:21:21;;;;;;;16.17;4.03;;;8.30;81.70;;;;;;5055268;28;20487;-71
2022/04/06 01:23:47;;;;;;;12.95;3.75;;;8.30;81.50;;;;;;5055293;28;20063;-71
2022/04/06 01:26:13;;;;;;;13.47;3.70;;;8.30;81.80;;;;;;5030987;28;20041;-71
2022/04/06 01:28:40;;;;;;;13.10;3.80;;;8.30;81.70;;;;;;5037426;28;20376;-71
2022/04/06 01:31:06;;;;;;;12.70;3.45;;;8.30;81.70;;;;;;5055302;28;20127;-72
2022/04/06 01:33:32;;;;;;;10.55;3.08;;;8.30;81.60;;;;;;5037880;28;20044;-72
2022/04/06 01:35:59;;;;;;;10.07;3.33;;;8.30;81.20;;;;;;5038289;28;20548;-71
2022/04/06 01:38:24;;;;;;;13.93;3.28;;;8.30;80.90;;;;;;5036911;28;20131;-71
2022/04/06 01:40:51;;;;;;;10.17;2.93;;;8.30;80.90;;;;;;5037372;28;20555;-71
2022/04/06 01:43:17;;;;;;;12.85;3.60;;;8.30;81.00;;;;;;5038539;28;20044;-71
2022/04/06 01:45:43;;;;;;;10.17;3.00;;;8.30;80.80;;;;;;5038615;28;20043;-71
2022/04/06 01:48:08;;;;;;;11.73;3.00;;;8.30;80.40;;;;;;5040921;28;20513;-71
2022/04/06 01:53:18;;;;;;;11.93;2.35;;;8.30;79.90;;;;;;5052545;28;20259;-71
2022/04/06 01:55:44;;;;;;;10.20;2.20;;;8.30;79.20;;;;;;5020588;28;20041;-71
2022/04/06 01:58:10;;;;;;;7.77;2.63;;;8.30;79.10;;;;;;5029071;28;20072;-71
2022/04/06 02:00:35;;;;;;;7.00;1.80;;;8.30;78.90;;;;;;5015950;28;20044;-71
2022/04/06 02:03:01;;;;;;;8.70;1.90;;;8.40;78.20;;;;;;5011975;28;20518;-71
2022/04/06 02:05:33;;;;;;;7.03;1.73;;;8.40;78.00;;;;;;5002360;28;20047;-71
2022/04/06 02:07:59;;;;;;;6.43;1.40;;;8.40;77.70;;;;;;5031560;28;20606;-71
2022/04/06 02:10:25;;;;;;;7.70;1.90;;;8.40;77.60;;;;;;5032206;28;20406;-71
2022/04/06 02:12:54;;;;;;;7.93;1.83;;;8.40;77.80;;;;;;5029667;28;20490;-71
2022/04/06 02:15:20;;;;;;;9.45;1.65;;;8.40;77.90;;;;;;5042389;28;20076;-71
2022/04/06 02:17:47;;;;;;;5.47;1.33;;;8.40;78.00;;;;;;5031840;28;20505;-71
2022/04/06 02:20:14;;;;;;;8.40;1.60;;;8.30;77.90;;;;;;5034219;28;20068;-71
2022/04/06 02:22:40;;;;;;;7.35;1.90;;;8.30;78.10;;;;;;4999462;28;20029;-71
2022/04/06 02:25:06;;;;;;;6.25;1.95;;;8.40;77.70;;;;;;5031858;28;20047;-71
2022/04/06 02:27:32;;;;;;;7.13;1.65;;;8.40;78.00;;;;;;5025400;28;20044;-71
2022/04/06 02:29:58;;;;;;;12.60;2.43;;;8.30;78.00;;;;;;5023068;28;20561;-71
2022/04/06 02:32:24;;;;;;;6.78;2.10;;;8.40;77.70;;;;;;5023025;28;20041;-71
2022/04/06 02:34:50;;;;;;;8.37;1.90;;;8.40;77.90;;;;;;5028724;28;20430;-71
2022/04/06 02:37:16;;;;;;;9.70;2.37;;;8.40;78.00;;;;;;5050460;28;20477;-71
2022/04/06 02:39:41;;;;;;;8.23;1.88;;;8.40;77.90;;;;;;5011952;28;20402;-72
2022/04/06 02:42:07;;;;;;;6.43;1.97;;;8.30;78.10;;;;;;5030017;28;20037;-71
2022/04/06 02:44:33;;;;;;;8.30;1.70;;;8.40;78.20;;;;;;5022276;28;20044;-71
2022/04/06 02:46:59;;;;;;;13.50;2.77;;;8.40;78.30;;;;;;5018603;28;20402;-71
2022/04/06 02:49:24;;;;;;;10.30;2.23;;;8.30;78.10;;;;;;5020791;28;20049;-71
2022/04/06 02:51:50;;;;;;;10.57;2.70;;;8.40;78.40;;;;;;5004882;28;20046;-71
2022/04/06 02:54:16;;;;;;;10.55;2.53;;;8.40;78.10;;;;;;5022249;28;20528;-71
2022/04/06 02:56:42;;;;;;;8.67;2.73;;;8.40;78.50;;;;;;5033757;28;20048;-71
2022/04/06 02:59:08;;;;;;;12.07;3.20;;;8.30;78.80;;;;;;5034983;28;20873;-71
2022/04/06 03:01:34;;;;;;;11.77;4.27;;;8.30;78.70;;;;;;5051284;28;20049;-71
2022/04/06 03:04:00;;;;;;;19.03;3.77;;;8.30;79.30;;;;;;5034856;28;20044;-71
2022/04/06 03:06:25;;;;;;;12.63;3.57;;;8.30;79.70;;;;;;5050227;28;20052;-71
2022/04/06 03:08:51;;;;;;;12.77;4.03;;;8.30;80.10;;;;;;5032487;28;20048;-71
2022/04/06 03:11:17;;;;;;;15.37;3.70;;;8.30;80.40;;;;;;5034019;28;20044;-71
2022/04/06 03:13:42;;;;;;;10.80;4.27;;;8.20;80.40;;;;;;5025487;28;20158;-71
2022/04/06 03:16:08;;;;;;;14.93;4.30;;;8.30;80.10;;;;;;5051058;28;20033;-71
2022/04/06 03:18:34;;;;;;;15.67;4.40;;;8.30;79.90;;;;;;5034526;28;20036;-71
2022/04/06 03:21:00;;;;;;;10.57;4.43;;;8.30;80.10;;;;;;5008454;28;20032;-71
2022/04/06 03:23:25;;;;;;;18.63;4.43;;;8.30;80.00;;;;;;5025807;28;20493;-71
2022/04/06 03:25:51;;;;;;;12.77;4.10;;;8.30;80.10;;;;;;5033374;28;20047;-71
2022/04/06 03:28:17;;;;;;;14.33;4.70;;;8.30;79.80;;;;;;5032392;28;20044;-71
2022/04/06 03:30:42;;;;;;;12.37;4.20;;;8.30;79.70;;;;;;5049762;28;20033;-71
2022/04/06 03:33:09;;;;;;;15.17;4.73;;;8.30;79.70;;;;;;5032927;28;20040;-71
2022/04/06 03:35:38;;;;;;;14.85;5.50;;;8.30;79.70;;;;;;5035039;28;20444;-71
2022/04/06 03:38:04;;;;;;;15.77;5.07;;;8.30;79.90;;;;;;5049993;28;20160;-72
2022/04/06 03:40:30;;;;;;;17.70;4.20;;;8.30;79.90;;;;;;5033133;28;20037;-71
2022/04/06 03:42:56;;;;;;;12.17;4.07;;;8.30;79.90;;;;;;5048438;28;20039;-71
2022/04/06 03:45:22;;;;;;;12.98;4.07;;;8.30;80.00;;;;;;5034266;28;20124;-71
2022/04/06 03:47:48;;;;;;;21.70;5.37;;;8.30;80.10;;;;;;5049860;28;20075;-71
2022/04/06 03:50:14;;;;;;;15.87;4.43;;;8.30;80.20;;;;;;5048896;28;20287;-71
2022/04/06 03:52:40;;;;;;;14.45;5.40;;;8.20;80.40;;;;;;5036781;28;20614;-71
2022/04/06 03:55:08;;;;;;;14.18;5.35;;;8.20;80.90;;;;;;5049493;28;20131;-71
2022/04/06 03:57:35;;;;;;;16.08;4.85;;;8.10;81.50;;;;;;5052113;28;20052;-71
2022/04/06 04:00:04;;;;;;;15.85;5.15;;;8.10;81.90;;;;;;5046262;28;20067;-71
2022/04/06 04:02:30;;;;;;;14.18;5.07;;;8.00;82.20;;;;;;5052559;28;20055;-72
2022/04/06 04:04:56;;;;;;;19.40;5.18;;;8.00;82.30;;;;;;5048357;28;20128;-72
2022/04/06 04:07:22;;;;;;;12.80;4.77;;;7.90;82.90;;;;;;5035121;28;20293;-72
2022/04/06 04:09:51;;;;;;;21.73;5.05;;;7.90;83.20;;;;;;5023411;28;20037;-72
2022/04/06 04:12:17;;;;;;;19.52;5.88;;;7.90;83.40;;;;;;5021225;28;20042;-72
2022/04/06 04:14:44;;;;;;;20.23;5.83;;;7.80;83.60;;;;;;5036657;28;20045;-72
2022/04/06 04:17:10;;;;;;;20.08;5.45;;;7.80;83.90;;;;;;5015673;28;20284;-72
2022/04/06 04:19:36;;;;;;;17.40;6.03;;;7.80;84.10;;;;;;5047848;28;20036;-72
2022/04/06 04:22:02;;;;;;;16.80;5.30;;;7.80;84.20;;;;;;5049612;28;20037;-72
2022/04/06 04:24:28;;;;;;;15.38;5.65;;;7.70;84.40;;;;;;5034029;28;20077;-72
2022/04/06 04:26:54;;;;;;;21.47;5.97;;;7.70;84.70;;;;;;5036682;28;20049;-72
2022/04/06 04:29:20;;;;;;;22.37;5.10;;;7.70;84.90;;;;;;5054357;28;20132;-72
2022/04/06 04:31:46;;;;;;;18.20;5.57;;;7.70;84.90;;;;;;5026840;28;20392;-72
2022/04/06 04:34:13;;;;;;;20.25;5.00;;;7.70;85.10;;;;;;5051240;28;20036;-72
2022/04/06 04:36:39;;;;;;;21.77;5.03;;;7.70;85.00;;;;;;5052336;28;20394;-72
2022/04/06 04:39:05;;;;;;;18.87;5.27;;;7.70;85.20;;;;;;5041560;28;20454;-72
2022/04/06 04:41:31;;;;;;;15.57;4.90;;;7.60;85.30;;;;;;5019222;28;20052;-72
2022/04/06 04:43:57;;;;;;;20.87;5.10;;;7.70;85.20;;;;;;5045560;28;20052;-72
2022/04/06 04:46:23;;;;;;;22.40;5.00;;;7.60;85.30;;;;;;5052182;28;20047;-72
2022/04/06 04:48:49;;;;;;;18.63;5.13;;;7.60;85.50;;;;;;5051847;28;20345;-72
2022/04/06 04:51:15;;;;;;;18.00;5.17;;;7.60;85.60;;;;;;5039131;28;20040;-72
2022/04/06 04:53:44;;;;;;;22.10;5.40;;;7.60;85.80;;;;;;5036398;28;20051;-72
2022/04/06 04:56:10;;;;;;;17.65;4.93;;;7.60;85.80;;;;;;5048051;28;20091;-72
2022/04/06 04:58:36;;;;;;;22.85;5.03;;;7.60;86.10;;;;;;5056274;28;20076;-72
2022/04/06 05:01:02;;;;;;;25.30;6.37;;;7.60;86.10;;;;;;5049030;28;20521;-72
2022/04/06 05:03:27;;;;;;;21.35;5.00;;;7.50;86.20;;;;;;5049869;28;20037;-72
2022/04/06 05:05:54;;;;;;;20.13;5.70;;;7.50;86.30;;;;;;5052960;28;20111;-72
2022/04/06 05:08:20;;;;;;;17.70;5.65;;;7.50;86.60;;;;;;5051152;28;20045;-72
2022/04/06 05:10:46;;;;;;;20.33;5.05;;;7.50;86.70;;;;;;5031204;28;20102;-72
2022/04/06 05:13:14;;;;;;;20.63;5.53;;;7.50;87.00;;;;;;5036280;28;20033;-72
2022/04/06 05:15:40;;;;;;;18.35;4.70;;;7.50;87.00;;;;;;5040564;28;20048;-72
2022/04/06 05:18:06;;;;;;;28.67;5.47;;;7.40;87.30;;;;;;5061165;28;20047;-72
2022/04/06 05:20:32;;;;;;;24.87;6.23;;;7.50;87.20;;;;;;5064283;28;20032;-72
2022/04/06 05:22:58;;;;;;;21.05;5.35;;;7.40;87.40;;;;;;5036280;28;20048;-72
2022/04/06 05:25:23;;;;;;;30.33;5.93;;;7.40;87.60;;;;;;5032020;28;20037;-72
2022/04/06 05:27:52;;;;;;;23.60;5.80;;;7.40;87.70;;;;;;5055552;28;20114;-72
2022/04/06 05:30:20;;;;;;;22.98;5.75;;;7.40;87.90;;;;;;5050267;28;20069;-72
2022/04/06 05:32:49;;;;;;;19.60;5.50;;;7.40;87.80;;;;;;5042613;28;20044;-73
2022/04/06 05:35:15;;;;;;;21.48;5.72;;;7.40;87.80;;;;;;5052963;28;20102;-73
2022/04/06 05:37:42;;;;;;;21.53;5.20;;;7.40;87.90;;;;;;5061607;28;20048;-73
2022/04/06 05:40:09;;;;;;;24.30;6.57;;;7.40;88.10;;;;;;5024381;28;20569;-73
2022/04/06 05:42:36;;;;;;;28.02;5.53;;;7.40;88.20;;;;;;5057412;28;20071;-73
2022/04/06 05:45:03;;;;;;;16.60;5.10;;;7.40;88.20;;;;;;5050695;28;20041;-72
2022/04/06 05:47:29;;;;;;;22.70;5.07;;;7.40;88.30;;;;;;5049834;28;20037;-73
2022/04/06 05:49:55;;;;;;;17.80;5.38;;;7.40;88.50;;;;;;5043041;28;20086;-73
2022/04/06 05:52:21;;;;;;;19.03;4.83;;;7.40;88.60;;;;;;5059569;28;20040;-73
2022/04/06 05:54:46;;;;;;;19.40;5.10;;;7.40;88.60;;;;;;5045198;28;20080;-72
2022/04/06 05:57:12;;;;;;;22.50;4.83;;;7.40;88.60;;;;;;5048536;28;20041;-72
2022/04/06 05:59:39;;;;;;;18.37;4.57;;;7.40;88.60;;;;;;5049974;28;20091;-72
2022/04/06 06:02:05;;;;;;;21.52;5.30;;;7.40;88.30;;;;;;5055759;28;20527;-73
2022/04/06 06:04:33;;;;;;;20.20;4.77;;;7.40;88.20;;;;;;5050607;28;20037;-72
2022/04/06 06:06:59;;;;;;;22.33;4.55;;;7.40;88.20;;;;;;5043194;28;20057;-72
2022/04/06 06:09:24;;;;;;;22.17;4.57;;;7.40;88.00;;;;;;5046020;28;20403;-72
2022/04/06 06:11:50;;;;;;;15.40;3.87;;;7.40;87.90;;;;;;5066735;28;20045;-72
2022/04/06 06:14:16;;;;;;;15.37;3.30;;;7.40;87.80;;;;;;5056047;28;20130;-72
2022/04/06 06:16:44;;;;;;;17.37;4.17;;;7.40;87.70;;;;;;5055786;28;20033;-72
2022/04/06 06:19:11;;;;;;;16.73;3.70;;;7.50;87.60;;;;;;5039070;28;20278;-72
2022/04/06 06:21:37;;;;;;;19.38;3.85;;;7.50;87.50;;;;;;5036608;28;20432;-73
2022/04/06 06:24:05;;;;;;;18.15;3.10;;;7.50;87.30;;;;;;5043132;28;20490;-73
2022/04/06 06:26:38;;;;;;;15.38;3.42;;;7.50;87.20;;;;;;5050219;28;20648;-72
2022/04/06 06:29:04;;;;;;;19.83;3.85;;;7.50;87.20;;;;;;5040818;28;20856;-72
2022/04/06 06:31:31;;;;;;;18.27;4.03;;;7.50;87.20;;;;;;5033689;28;20079;-72
2022/04/06 06:33:58;;;;;;;21.10;4.32;;;7.50;87.20;;;;;;5044481;28;20109;-72
2022/04/06 06:36:25;;;;;;;25.42;4.22;;;7.50;87.40;;;;;;5044002;28;20040;-72
2022/04/06 06:38:54;;;;;;;18.23;3.70;;;7.50;87.40;;;;;;5057156;28;20048;-73
2022/04/06 06:41:21;;;;;;;14.55;3.53;;;7.50;87.40;;;;;;5039201;28;20045;-73
2022/04/06 06:43:48;;;;;;;17.65;3.38;;;7.50;87.30;;;;;;5058654;28;20074;-73
2022/04/06 06:46:19;;;;;;;20.48;3.80;;;7.50;87.30;;;;;;5061799;28;20447;-72
2022/04/06 06:48:46;;;;;;;14.98;3.15;;;7.50;87.20;;;;;;5057737;28;20497;-72
2022/04/06 06:51:13;;;;;;;20.20;3.50;;;7.50;87.10;;;;;;5035883;28;20036;-72
2022/04/06 06:53:39;;;;;;;21.70;5.18;;;7.50;87.00;;;;;;5030300;28;20041;-72
2022/04/06 06:56:05;;;;;;;15.27;3.20;;;7.60;86.90;;;;;;5041392;28;20064;-72
2022/04/06 06:58:31;;;;;;;14.60;3.75;;;7.60;86.90;;;;;;5040243;28;20521;-72
2022/04/06 07:00:57;;;;;;;25.17;4.27;;;7.60;86.80;;;;;;5041550;28;20128;-72
2022/04/06 07:03:23;;;;;;;19.60;3.60;;;7.60;86.80;;;;;;5044978;28;20055;-72
2022/04/06 07:05:49;;;;;;;23.50;3.57;;;7.60;86.80;;;;;;5052245;28;20072;-73
2022/04/06 07:08:15;;;;;;;18.97;3.47;;;7.60;86.90;;;;;;5036607;28;20280;-73
2022/04/06 07:10:48;;;;;;;14.13;3.20;;;7.70;86.60;;;;;;5059468;28;20041;-72
2022/04/06 07:13:16;;;;;;;21.10;3.88;;;7.70;86.40;;;;;;5053675;28;20041;-72
2022/04/06 07:15:44;;;;;;;13.68;3.75;;;7.70;86.60;;;;;;5057917;28;20056;-72
2022/04/06 07:18:11;;;;;;;17.00;3.17;;;7.80;86.10;;;;;;5025018;28;20043;-72
2022/04/06 07:20:37;;;;;;;16.75;3.35;;;7.80;86.00;;;;;;5054754;28;20048;-72
2022/04/06 07:23:04;;;;;;;15.20;3.30;;;7.80;86.00;;;;;;5040816;28;20040;-72
2022/04/06 07:25:30;;;;;;;18.63;3.13;;;7.80;85.80;;;;;;5038355;28;20055;-72
2022/04/06 07:27:56;;;;;;;15.57;3.13;;;7.80;85.80;;;;;;5039330;28;20062;-72
2022/04/06 07:30:22;;;;;;;19.07;3.23;;;7.80;85.80;;;;;;5023417;28;20067;-72
2022/04/06 07:32:47;;;;;;;21.60;3.58;;;7.80;85.80;;;;;;5046508;28;20462;-72
2022/04/06 07:35:13;;;;;;;20.27;3.53;;;7.80;86.00;;;;;;5056494;28;20068;-72
2022/04/06 07:37:41;;;;;;;19.60;3.30;;;7.80;86.20;;;;;;5037571;28;20378;-72
2022/04/06 07:40:09;;;;;;;12.73;3.30;;;7.80;86.40;;;;;;5053603;28;20124;-73
2022/04/06 07:42:39;;;;;;;17.13;3.33;;;7.80;86.60;;;;;;5055862;28;20130;-73
2022/04/06 07:45:07;;;;;;;20.98;3.58;;;7.80;86.40;;;;;;5048284;28;20052;-73
2022/04/06 07:47:34;;;;;;;24.98;4.35;;;7.80;86.40;;;;;;5025119;28;20041;-73
2022/04/06 07:50:01;;;;;;;15.00;3.10;;;7.80;86.40;;;;;;5024938;28;20485;-73
2022/04/06 07:52:30;;;;;;;22.08;3.95;;;7.80;86.50;;;;;;5053613;28;20158;-73
2022/04/06 07:54:56;;;;;;;14.13;3.38;;;7.80;86.50;;;;;;5039725;28;20049;-72
2022/04/06 07:57:27;;;;;;;19.07;4.10;;;7.90;86.70;;;;;;5026294;28;20071;-72
2022/04/06 07:59:54;;;;;;;19.88;2.95;;;7.90;86.50;;;;;;5049802;28;20060;-72
2022/04/06 08:02:20;;;;;;;12.90;2.88;;;8.00;86.50;;;;;;5044301;28;20078;-72
2022/04/06 08:04:46;;;;;;;14.48;3.00;;;8.10;86.20;;;;;;5050251;28;20135;-72
2022/04/06 08:07:12;;;;;;;17.07;2.90;;;8.10;85.90;;;;;;5049175;28;20150;-72
2022/04/06 08:09:38;;;;;;;17.07;2.90;;;8.20;85.40;;;;;;5060098;28;20283;-72
2022/04/06 08:12:04;;;;;;;19.17;2.83;;;8.20;85.10;;;;;;5039469;28;20048;-72
2022/04/06 08:14:30;;;;;;;14.35;3.08;;;8.20;85.00;;;;;;5042710;28;20536;-72
2022/04/06 08:16:56;;;;;;;13.17;2.80;;;8.20;84.60;;;;;;5062002;28;20119;-72
2022/04/06 08:19:26;;;;;;;15.10;2.45;;;8.30;84.50;;;;;;5055808;28;20066;-72
2022/04/06 08:21:53;;;;;;;12.35;2.50;;;8.30;84.10;;;;;;5034105;28;20060;-72
2022/04/06 08:24:19;;;;;;;18.63;2.83;;;8.40;83.80;;;;;;5041235;28;20400;-72
2022/04/06 08:26:45;;;;;;;13.00;3.10;;;8.40;83.30;;;;;;5045222;28;20045;-72
2022/04/06 08:29:11;;;;;;;9.43;3.30;;;8.50;82.90;;;;;;5048009;28;20045;-72
2022/04/06 08:31:37;;;;;;;12.63;2.47;;;8.50;82.60;;;;;;5039337;28;20507;-72
2022/04/06 08:34:04;;;;;;;22.77;3.07;;;8.60;82.90;;;;;;5065282;28;20339;-72
2022/04/06 08:36:30;;;;;;;20.30;3.20;;;8.80;82.70;;;;;;5047079;28;20040;-72
2022/04/06 08:38:57;;;;;;;12.23;2.80;;;8.90;82.60;;;;;;5039473;28;20041;-72
2022/04/06 08:41:26;;;;;;;13.48;2.65;;;9.00;82.00;;;;;;5031675;28;20040;-72
2022/04/06 08:43:53;;;;;;;10.93;2.40;;;9.20;81.70;;;;;;5036616;28;20044;-72
2022/04/06 08:46:20;;;;;;;15.93;3.15;;;9.30;80.60;;;;;;5031584;28;20277;-72
2022/04/06 08:48:51;;;;;;;16.27;2.55;;;9.40;80.90;;;;;;5037549;28;20040;-72
2022/04/06 08:51:18;;;;;;;14.00;3.08;;;9.60;81.20;;;;;;5040863;28;20048;-72
2022/04/06 08:53:45;;;;;;;11.02;2.47;;;9.70;80.10;;;;;;5043639;28;20552;-72
2022/04/06 08:56:12;;;;;;;12.50;2.33;;;9.80;79.90;;;;;;5043234;28;20524;-72
2022/04/06 08:58:39;;;;;;;12.65;2.72;;;9.90;79.50;;;;;;5053587;28;20059;-72
2022/04/06 09:01:05;;;;;;;14.43;2.42;;;10.00;79.30;;;;;;5064646;28;20045;-72
2022/04/06 09:03:31;;;;;;;16.02;3.30;;;10.10;78.90;;;;;;5043152;28;20493;-72
2022/04/06 09:06:06;;;;;;;10.33;2.80;;;10.10;78.10;;;;;;5040694;28;20170;-73
2022/04/06 09:08:35;;;;;;;;;;;10.00;77.70;;;;;;5063096;28;20041;-73
2022/04/06 09:11:11;;;;;;;11.48;2.33;;;10.10;78.40;;;;;;5045067;28;19917;-73
2022/04/06 09:13:39;;;;;;;15.55;2.70;;;10.30;78.40;;;;;;5038664;28;20033;-72
2022/04/06 09:16:08;;;;;;;12.85;3.20;;;10.40;77.70;;;;;;5055905;28;20818;-72
2022/04/06 09:18:35;;;;;;;11.15;2.83;;;10.60;77.70;;;;;;5060519;28;20120;-72
2022/04/06 09:21:02;;;;;;;15.48;3.10;;;10.70;77.30;;;;;;5059120;28;20409;-72
2022/04/06 09:23:32;;;;;;;14.77;2.72;;;10.50;76.80;;;;;;5044288;28;20040;-72
2022/04/06 09:26:06;;;;;;;12.02;2.45;;;10.30;77.90;;;;;;5048116;28;20532;-72
2022/04/06 09:28:32;;;;;;;21.10;4.63;;;10.30;77.80;;;;;;5035746;28;20132;-72
2022/04/06 09:30:58;;;;;;;16.77;3.67;;;10.20;77.70;;;;;;5026647;28;20239;-72
2022/04/06 09:33:28;;;;;;;14.90;3.25;;;10.20;77.90;;;;;;5039292;28;20116;-72
2022/04/06 09:35:55;;;;;;;15.65;2.95;;;10.10;78.40;;;;;;5053280;28;20436;-72
2022/04/06 09:38:22;;;;;;;15.90;3.58;;;10.10;77.90;;;;;;5036888;28;20063;-73
2022/04/06 09:40:51;;;;;;;15.55;3.40;;;10.10;78.20;;;;;;5058074;28;20121;-72
2022/04/06 09:43:50;;;;;;;15.90;3.38;;;10.00;78.40;;;;;;5046667;28;20056;-72
2022/04/06 09:49:19;;;;;;;18.95;3.25;;;9.90;78.50;;;;;;5050019;28;20502;-72
2022/04/06 09:51:49;;;;;;;15.88;3.35;;;9.90;78.80;;;;;;5054846;28;20456;-72
2022/04/06 09:54:15;;;;;;;20.23;4.15;;;9.90;79.90;;;;;;5056586;28;20072;-72
2022/04/06 09:56:42;;;;;;;16.73;3.23;;;9.80;79.40;;;;;;5061882;28;20059;-72
2022/04/06 09:59:10;;;;;;;17.85;3.00;;;9.80;79.50;;;;;;5038132;28;20075;-72
2022/04/06 10:01:47;;;;;;;20.33;3.80;;;9.80;79.40;;;;;;5054480;28;20032;-72
2022/04/06 10:04:17;;;;;;;16.83;3.55;;;9.80;78.90;;;;;;5051639;28;20588;-72
2022/04/06 10:06:43;;;;;;;18.75;4.47;;;9.80;79.20;;;;;;5061224;28;20040;-72
2022/04/06 10:09:11;;;;;;;14.00;2.80;;;9.80;79.80;;;;;;5058544;28;20032;-72
2022/04/06 10:11:38;;;;;;;13.70;3.22;;;9.80;79.20;;;;;;5053098;28;20050;-72
2022/04/06 10:14:08;;;;;;;23.33;3.38;;;9.80;79.40;;;;;;5053598;28;20083;-72
2022/04/06 10:16:36;;;;;;;17.83;3.45;;;9.80;79.60;;;;;;5046522;28;20177;-72
2022/04/06 10:19:03;;;;;;;22.60;4.20;;;9.80;80.40;;;;;;5069738;28;20040;-72
2022/04/06 10:21:38;;;;;;;18.85;3.72;;;9.80;81.40;;;;;;5069770;28;20040;-72
2022/04/06 10:24:33;;;;;;;17.75;3.60;;;9.70;81.70;;;;;;5040946;28;20044;-72
2022/04/06 10:27:24;;;;;;;19.75;3.65;;;9.70;81.40;;;;;;5059351;28;20043;-72
2022/04/06 10:30:23;;;;;;;17.52;3.78;;;9.80;81.30;;;;;;5038650;28;20082;-72
2022/04/06 10:32:53;;;;;;;15.70;3.60;;;10.00;81.10;;;;;;5031180;28;20068;-72
2022/04/06 10:35:37;;;;;;;16.75;3.42;;;10.00;80.90;;;;;;5061538;28;20580;-72
2022/04/06 10:38:02;;;;;;;20.88;4.05;;;10.00;81.40;;;;;;5033532;28;20036;-72
2022/04/06 10:40:49;;;;;;;17.47;3.40;;;10.00;81.30;;;;;;5041401;28;20048;-72
2022/04/06 10:43:38;;;;;;;17.05;3.53;;;10.00;81.60;;;;;;5056418;28;20056;-72
2022/04/06 10:46:14;;;;;;;22.98;4.00;;;10.10;81.30;;;;;;5039155;28;20044;-72
2022/04/06 10:48:57;;;;;;;18.00;4.10;;;10.40;81.80;;;;;;5045275;28;20481;-72
2022/04/06 10:51:34;;;;;;;16.42;4.07;;;10.60;81.20;;;;;;5047738;28;20040;-72
2022/04/06 10:54:12;;;;;;;24.60;4.60;;;10.90;80.00;;;;;;5048857;28;20040;-72
2022/04/06 10:56:50;;;;;;;20.30;4.07;;;11.20;79.70;;;;;;5049139;28;20523;-72
2022/04/06 10:59:20;;;;;;;17.27;3.80;;;11.20;77.50;;;;;;5046266;28;20040;-72
2022/04/06 11:01:48;;;;;;;17.08;3.58;;;11.40;78.30;;;;;;5050556;28;20089;-72
2022/04/06 11:04:24;;;;;;;19.35;4.70;;;11.40;76.30;;;;;;5027540;28;20048;-72
2022/04/06 11:06:56;;;;;;;16.17;3.93;;;11.40;77.20;;;;;;5054797;28;20078;-72
2022/04/06 11:12:18;;;;;;;16.83;3.00;;;11.60;75.50;;;;;;5056110;28;20309;-72
2022/04/06 11:14:48;;;;;;;15.80;3.80;;;11.80;76.00;;;;;;5050773;28;20852;-72
2022/04/06 11:17:38;;;;;;;16.80;3.13;;;12.10;76.40;;;;;;5042427;28;20316;-72
2022/04/06 11:20:09;;;;;;;12.30;3.37;;;12.20;74.20;;;;;;5049263;28;20282;-72
2022/04/06 11:22:53;;;;;;;18.10;3.60;;;12.20;74.20;;;;;;5040241;28;20393;-72
2022/04/06 11:25:21;;;;;;;11.23;3.20;;;12.30;74.10;;;;;;5037938;28;20290;-72
2022/04/06 11:27:48;;;;;;;21.03;3.40;;;12.40;74.10;;;;;;5056363;28;20639;-72
2022/04/06 11:30:22;;;;;;;13.20;3.67;;;12.40;72.80;;;;;;5047083;28;20327;-72
2022/04/06 11:32:56;;;;;;;16.60;3.33;;;12.40;72.60;;;;;;5034804;28;20286;-72
2022/04/06 11:35:48;;;;;;;15.10;3.92;;;12.30;72.70;;;;;;5047249;28;20043;-72
2022/04/06 11:38:14;;;;;;;16.67;3.47;;;12.30;73.60;;;;;;5037276;28;20040;-72
2022/04/06 11:40:40;;;;;;;20.87;3.83;;;12.50;72.60;;;;;;5038346;28;20283;-72
2022/04/06 11:43:06;;;;;;;20.33;3.53;;;12.50;72.50;;;;;;5049830;28;20054;-72
2022/04/06 11:45:40;;;;;;;16.07;3.53;;;12.50;72.50;;;;;;5037373;28;20275;-72
2022/04/06 11:48:07;;;;;;;19.77;3.63;;;12.40;72.70;;;;;;5054183;28;20078;-72
2022/04/06 11:50:35;;;;;;;16.67;3.50;;;12.20;73.20;;;;;;5062176;28;20314;-72
2022/04/06 11:53:09;;;;;;;13.30;3.43;;;12.10;72.90;;;;;;5044627;28;20366;-72
2022/04/06 11:55:39;;;;;;;14.47;3.70;;;11.90;74.30;;;;;;5021441;28;20912;-72
2022/04/06 11:58:05;;;;;;;19.00;4.37;;;11.80;74.00;;;;;;5059812;28;20663;-72
2022/04/06 12:00:34;;;;;;;15.37;3.43;;;11.60;73.90;;;;;;5057607;28;20293;-72
2022/04/06 12:02:59;;;;;;;12.73;3.40;;;11.60;74.90;;;;;;5064484;28;20401;-72
2022/04/06 12:05:25;;;;;;;22.83;4.43;;;11.60;75.30;;;;;;5054643;28;20297;-72
2022/04/06 12:08:08;;;;;;;18.93;3.83;;;11.60;75.20;;;;;;5053976;28;20040;-72
2022/04/06 12:10:33;;;;;;;16.77;4.00;;;11.90;74.90;;;;;;5060219;28;20492;-72
2022/04/06 12:12:59;;;;;;;14.47;3.17;;;12.00;74.70;;;;;;5039747;28;20307;-72
2022/04/06 12:15:25;;;;;;;17.67;3.53;;;12.00;73.80;;;;;;5064067;28;20082;-72
2022/04/06 12:17:51;;;;;;;19.53;4.27;;;11.70;73.30;;;;;;5035707;28;20091;-72
2022/04/06 12:20:26;;;;;;;14.13;3.93;;;11.40;74.70;;;;;;5054230;28;20040;-72
2022/04/06 12:23:08;;;;;;;18.37;4.50;;;11.60;75.50;;;;;;5056739;28;20328;-72
2022/04/06 12:25:35;;;;;;;19.17;3.77;;;11.80;74.80;;;;;;5049729;28;20374;-72
2022/04/06 12:28:11;;;;;;;21.57;4.43;;;11.70;73.20;;;;;;5051800;28;20622;-72
2022/04/06 12:30:54;;;;;;;16.90;3.30;;;11.70;74.10;;;;;;5054839;28;20287;-72
2022/04/06 12:33:39;;;;;;;13.13;3.23;;;11.70;74.00;;;;;;5034178;28;20409;-72
2022/04/06 12:36:08;;;;;;;15.25;3.47;;;11.60;74.20;;;;;;5065479;28;20290;-72
2022/04/06 12:38:34;;;;;;;15.30;3.67;;;11.60;74.00;;;;;;5039964;28;20044;-72
2022/04/06 12:41:14;;;;;;;23.90;3.07;;;11.60;75.50;;;;;;5039348;28;20274;-72
2022/04/06 12:43:46;;;;;;;13.47;3.43;;;11.70;74.00;;;;;;5050292;28;20652;-72
2022/04/06 12:46:13;;;;;;;18.43;3.63;;;11.60;74.10;;;;;;5060866;28;20787;-72
2022/04/06 12:48:39;;;;;;;15.70;3.83;;;11.60;73.90;;;;;;5040016;28;20279;-72
2022/04/06 12:51:21;;;;;;;18.23;3.60;;;11.60;75.00;;;;;;5042487;28;20960;-72
2022/04/06 12:53:49;;;;;;;18.10;3.43;;;11.50;74.10;;;;;;5056085;28;20311;-72
2022/04/06 12:56:15;;;;;;;13.40;3.03;;;11.40;74.50;;;;;;5062824;28;20295;-72
2022/04/06 12:58:42;;;;;;;13.30;3.57;;;11.30;74.30;;;;;;5044068;28;20326;-72
2022/04/06 13:01:11;;;;;;;20.73;4.35;;;11.10;75.10;;;;;;5029203;28;20829;-72